sensor_id;sensor_type;location;lat;lon;timestamp;pressure;altitude;pressure_sealevel;temperature;humidity
50123;BME280;36021;48.670;6.184;2023-05-27T00:00:07;99671.53;;;17.92;100.00
50123;BME280;36021;48.670;6.184;2023-05-27T00:02:34;99668.75;;;17.83;100.00
50123;BME280;36021;48.670;6.184;2023-05-27T00:05:00;99676.63;;;17.81;100.00
50123;BME280;36021;48.670;6.184;2023-05-27T00:07:27;99677.63;;;17.85;100.00
50123;BME280;36021;48.670;6.184;2023-05-27T00:09:56;99671.88;;;17.73;100.00
50123;BME280;36021;48.670;6.184;2023-05-27T00:12:22;99673.84;;;17.73;100.00
50123;BME280;36021;48.670;6.184;2023-05-27T00:14:48;99660.38;;;17.75;100.00
50123;BME280;36021;48.670;6.184;2023-05-27T00:17:13;99669.38;;;17.80;100.00
50123;BME280;36021;48.670;6.184;2023-05-27T00:19:43;99667.59;;;17.84;100.00
50123;BME280;36021;48.670;6.184;2023-05-27T00:22:11;99669.72;;;17.87;100.00
50123;BME280;36021;48.670;6.184;2023-05-27T00:24:37;99668.41;;;17.85;100.00
50123;BME280;36021;48.670;6.184;2023-05-27T00:27:05;99670.25;;;17.89;100.00
50123;BME280;36021;48.670;6.184;2023-05-27T00:29:32;99664.81;;;17.84;100.00
50123;BME280;36021;48.670;6.184;2023-05-27T00:32:00;99664.63;;;17.81;100.00
50123;BME280;36021;48.670;6.184;2023-05-27T00:34:26;99664.97;;;17.88;100.00
50123;BME280;36021;48.670;6.184;2023-05-27T00:36:51;99670.88;;;17.78;100.00
50123;BME280;36021;48.670;6.184;2023-05-27T00:39:17;99667.25;;;17.68;100.00
50123;BME280;36021;48.670;6.184;2023-05-27T00:41:49;99661.03;;;17.72;100.00
50123;BME280;36021;48.670;6.184;2023-05-27T00:44:16;99665.25;;;17.60;100.00
50123;BME280;36021;48.670;6.184;2023-05-27T00:46:42;99655.63;;;17.66;100.00
50123;BME280;36021;48.670;6.184;2023-05-27T00:49:08;99658.91;;;17.60;100.00
50123;BME280;36021;48.670;6.184;2023-05-27T00:51:34;99657.41;;;17.62;100.00
50123;BME280;36021;48.670;6.184;2023-05-27T00:54:00;99653.63;;;17.58;100.00
50123;BME280;36021;48.670;6.184;2023-05-27T00:56:26;99660.69;;;17.64;100.00
50123;BME280;36021;48.670;6.184;2023-05-27T00:58:52;99656.28;;;17.63;100.00
50123;BME280;36021;48.670;6.184;2023-05-27T01:01:19;99653.75;;;17.53;100.00
50123;BME280;36021;48.670;6.184;2023-05-27T01:03:45;99649.47;;;17.47;100.00
50123;BME280;36021;48.670;6.184;2023-05-27T01:12:15;99645.66;;;17.26;100.00
50123;BME280;36021;48.670;6.184;2023-05-27T01:14:43;99638.44;;;17.25;100.00
50123;BME280;36021;48.670;6.184;2023-05-27T01:17:11;99627.81;;;17.27;100.00
50123;BME280;36021;48.670;6.184;2023-05-27T01:19:41;99628.94;;;17.35;100.00
50123;BME280;36021;48.670;6.184;2023-05-27T01:22:14;99629.44;;;17.28;100.00
50123;BME280;36021;48.670;6.184;2023-05-27T01:24:40;99628.78;;;17.31;100.00
50123;BME280;36021;48.670;6.184;2023-05-27T01:27:08;99627.47;;;17.20;100.00
50123;BME280;36021;48.670;6.184;2023-05-27T01:29:34;99623.03;;;17.19;100.00
50123;BME280;36021;48.670;6.184;2023-05-27T01:34:55;99613.91;;;16.88;100.00
50123;BME280;36021;48.670;6.184;2023-05-27T01:37:24;99615.53;;;16.89;100.00
50123;BME280;36021;48.670;6.184;2023-05-27T01:39:51;99615.78;;;17.01;100.00
50123;BME280;36021;48.670;6.184;2023-05-27T01:42:19;99610.19;;;17.01;100.00
50123;BME280;36021;48.670;6.184;2023-05-27T01:44:45;99610.69;;;17.03;100.00
50123;BME280;36021;48.670;6.184;2023-05-27T01:47:13;99607.41;;;17.01;100.00
50123;BME280;36021;48.670;6.184;2023-05-27T01:49:39;99609.69;;;16.99;100.00
50123;BME280;36021;48.670;6.184;2023-05-27T01:52:05;99597.22;;;16.88;100.00
50123;BME280;36021;48.670;6.184;2023-05-27T01:54:31;99594.06;;;16.81;100.00
50123;BME280;36021;48.670;6.184;2023-05-27T01:56:58;99594.91;;;16.90;100.00
50123;BME280;36021;48.670;6.184;2023-05-27T01:59:25;99594.28;;;16.93;100.00
50123;BME280;36021;48.670;6.184;2023-05-27T02:01:51;99585.06;;;16.84;100.00
50123;BME280;36021;48.670;6.184;2023-05-27T02:04:20;99588.34;;;16.86;100.00
50123;BME280;36021;48.670;6.184;2023-05-27T02:06:46;99582.88;;;16.72;100.00
50123;BME280;36021;48.670;6.184;2023-05-27T02:09:12;99586.13;;;16.65;100.00
50123;BME280;36021;48.670;6.184;2023-05-27T02:11:39;99591.56;;;16.71;100.00
50123;BME280;36021;48.670;6.184;2023-05-27T02:14:05;99592.03;;;16.64;100.00
50123;BME280;36021;48.670;6.184;2023-05-27T02:16:32;99592.88;;;16.64;100.00
50123;BME280;36021;48.670;6.184;2023-05-27T02:19:00;99600.44;;;16.50;100.00
50123;BME280;36021;48.670;6.184;2023-05-27T02:21:26;99590.91;;;16.43;100.00
50123;BME280;36021;48.670;6.184;2023-05-27T02:23:53;99588.47;;;16.41;100.00
50123;BME280;36021;48.670;6.184;2023-05-27T02:26:19;99593.34;;;16.36;100.00
50123;BME280;36021;48.670;6.184;2023-05-27T02:28:44;99591.09;;;16.46;100.00
50123;BME280;36021;48.670;6.184;2023-05-27T02:31:10;99594.38;;;16.48;100.00
50123;BME280;36021;48.670;6.184;2023-05-27T02:33:38;99580.53;;;16.57;100.00
50123;BME280;36021;48.670;6.184;2023-05-27T02:36:04;99583.91;;;16.45;100.00
50123;BME280;36021;48.670;6.184;2023-05-27T02:38:31;99576.22;;;16.20;100.00
50123;BME280;36021;48.670;6.184;2023-05-27T02:40:57;99575.31;;;16.33;100.00
50123;BME280;36021;48.670;6.184;2023-05-27T02:43:22;99576.78;;;16.31;100.00
50123;BME280;36021;48.670;6.184;2023-05-27T02:45:48;99585.31;;;16.34;100.00
50123;BME280;36021;48.670;6.184;2023-05-27T02:48:17;99579.44;;;16.36;100.00
50123;BME280;36021;48.670;6.184;2023-05-27T02:50:43;99588.25;;;16.29;100.00
50123;BME280;36021;48.670;6.184;2023-05-27T02:53:09;99582.34;;;16.31;100.00
50123;BME280;36021;48.670;6.184;2023-05-27T02:55:35;99576.75;;;16.22;100.00
50123;BME280;36021;48.670;6.184;2023-05-27T02:58:02;99577.69;;;16.17;100.00
50123;BME280;36021;48.670;6.184;2023-05-27T03:00:30;99584.94;;;16.27;100.00
50123;BME280;36021;48.670;6.184;2023-05-27T03:02:56;99581.94;;;16.15;100.00
50123;BME280;36021;48.670;6.184;2023-05-27T03:05:22;99581.16;;;16.01;100.00
50123;BME280;36021;48.670;6.184;2023-05-27T03:07:49;99578.34;;;15.92;100.00
50123;BME280;36021;48.670;6.184;2023-05-27T03:10:15;99575.63;;;15.79;100.00
50123;BME280;36021;48.670;6.184;2023-05-27T03:12:41;99574.31;;;15.76;100.00
50123;BME280;36021;48.670;6.184;2023-05-27T03:15:07;99576.13;;;15.81;100.00
50123;BME280;36021;48.670;6.184;2023-05-27T03:17:37;99576.84;;;15.86;100.00
50123;BME280;36021;48.670;6.184;2023-05-27T03:20:03;99578.25;;;15.84;100.00
50123;BME280;36021;48.670;6.184;2023-05-27T03:22:35;99583.31;;;15.59;100.00
50123;BME280;36021;48.670;6.184;2023-05-27T03:25:02;99586.41;;;15.58;100.00
50123;BME280;36021;48.670;6.184;2023-05-27T03:27:27;99583.94;;;15.56;100.00
50123;BME280;36021;48.670;6.184;2023-05-27T03:29:54;99586.19;;;15.54;100.00
50123;BME280;36021;48.670;6.184;2023-05-27T03:32:20;99580.34;;;15.42;100.00
50123;BME280;36021;48.670;6.184;2023-05-27T03:34:49;99569.13;;;15.47;100.00
50123;BME280;36021;48.670;6.184;2023-05-27T03:37:15;99575.91;;;15.55;100.00
50123;BME280;36021;48.670;6.184;2023-05-27T03:39:57;99574.97;;;15.59;100.00
50123;BME280;36021;48.670;6.184;2023-05-27T03:42:23;99570.78;;;15.48;100.00
50123;BME280;36021;48.670;6.184;2023-05-27T03:44:49;99579.41;;;15.47;100.00
50123;BME280;36021;48.670;6.184;2023-05-27T03:47:17;99582.44;;;15.50;100.00
50123;BME280;36021;48.670;6.184;2023-05-27T03:49:46;99585.22;;;15.50;100.00
50123;BME280;36021;48.670;6.184;2023-05-27T03:52:11;99581.28;;;15.51;100.00
50123;BME280;36021;48.670;6.184;2023-05-27T03:54:37;99590.22;;;15.48;100.00
50123;BME280;36021;48.670;6.184;2023-05-27T03:57:04;99578.59;;;15.46;100.00
50123;BME280;36021;48.670;6.184;2023-05-27T03:59:32;99580.88;;;15.44;100.00
50123;BME280;36021;48.670;6.184;2023-05-27T04:01:59;99581.38;;;15.46;100.00
50123;BME280;36021;48.670;6.184;2023-05-27T04:04:25;99584.16;;;15.46;100.00
50123;BME280;36021;48.670;6.184;2023-05-27T04:06:53;99584.25;;;15.41;100.00
50123;BME280;36021;48.670;6.184;2023-05-27T04:09:19;99581.09;;;15.34;100.00
50123;BME280;36021;48.670;6.184;2023-05-27T04:11:44;99584.59;;;15.26;100.00
50123;BME280;36021;48.670;6.184;2023-05-27T04:14:10;99590.38;;;15.16;100.00
50123;BME280;36021;48.670;6.184;2023-05-27T04:16:36;99587.09;;;15.14;100.00
50123;BME280;36021;48.670;6.184;2023-05-27T04:19:03;99586.28;;;15.13;100.00
50123;BME280;36021;48.670;6.184;2023-05-27T04:21:31;99591.72;;;15.19;100.00
50123;BME280;36021;48.670;6.184;2023-05-27T04:23:56;99587.09;;;15.28;100.00
50123;BME280;36021;48.670;6.184;2023-05-27T04:26:23;99595.09;;;15.29;100.00
50123;BME280;36021;48.670;6.184;2023-05-27T04:28:53;99590.59;;;15.20;100.00
50123;BME280;36021;48.670;6.184;2023-05-27T04:31:21;99593.06;;;15.21;100.00
50123;BME280;36021;48.670;6.184;2023-05-27T04:33:56;99589.75;;;15.19;100.00
50123;BME280;36021;48.670;6.184;2023-05-27T04:36:22;99590.16;;;15.26;100.00
50123;BME280;36021;48.670;6.184;2023-05-27T04:39:10;99581.34;;;15.24;100.00
50123;BME280;36021;48.670;6.184;2023-05-27T04:41:39;99588.13;;;15.18;100.00
50123;BME280;36021;48.670;6.184;2023-05-27T04:44:25;99595.00;;;15.21;100.00
50123;BME280;36021;48.670;6.184;2023-05-27T04:46:55;99598.09;;;15.19;100.00
50123;BME280;36021;48.670;6.184;2023-05-27T04:49:21;99594.06;;;15.25;100.00
50123;BME280;36021;48.670;6.184;2023-05-27T04:51:47;99589.94;;;15.36;100.00
50123;BME280;36021;48.670;6.184;2023-05-27T04:54:16;99587.97;;;15.37;100.00
50123;BME280;36021;48.670;6.184;2023-05-27T04:56:43;99578.53;;;15.38;100.00
50123;BME280;36021;48.670;6.184;2023-05-27T04:59:17;99582.94;;;15.25;100.00
50123;BME280;36021;48.670;6.184;2023-05-27T05:01:46;99579.84;;;15.40;100.00
50123;BME280;36021;48.670;6.184;2023-05-27T05:04:39;99587.66;;;15.52;100.00
50123;BME280;36021;48.670;6.184;2023-05-27T05:07:05;99580.88;;;15.44;100.00
50123;BME280;36021;48.670;6.184;2023-05-27T05:09:34;99591.59;;;15.51;100.00
50123;BME280;36021;48.670;6.184;2023-05-27T05:12:07;99580.69;;;15.41;100.00
50123;BME280;36021;48.670;6.184;2023-05-27T05:14:37;99586.19;;;15.54;100.00
50123;BME280;36021;48.670;6.184;2023-05-27T05:17:02;99593.91;;;15.57;100.00
50123;BME280;36021;48.670;6.184;2023-05-27T05:19:29;99595.06;;;15.56;100.00
50123;BME280;36021;48.670;6.184;2023-05-27T05:21:56;99591.75;;;15.54;100.00
50123;BME280;36021;48.670;6.184;2023-05-27T05:24:22;99592.91;;;15.53;100.00
50123;BME280;36021;48.670;6.184;2023-05-27T05:26:48;99597.16;;;15.51;100.00
50123;BME280;36021;48.670;6.184;2023-05-27T05:29:14;99589.91;;;15.63;100.00
50123;BME280;36021;48.670;6.184;2023-05-27T05:31:40;99589.25;;;15.67;100.00
50123;BME280;36021;48.670;6.184;2023-05-27T05:34:12;99593.56;;;15.73;100.00
50123;BME280;36021;48.670;6.184;2023-05-27T05:36:38;99592.72;;;15.72;100.00
50123;BME280;36021;48.670;6.184;2023-05-27T05:39:06;99597.66;;;15.75;100.00
50123;BME280;36021;48.670;6.184;2023-05-27T05:41:33;99594.25;;;15.78;100.00
50123;BME280;36021;48.670;6.184;2023-05-27T05:43:59;99594.19;;;15.70;100.00
50123;BME280;36021;48.670;6.184;2023-05-27T05:46:25;99597.38;;;15.77;100.00
50123;BME280;36021;48.670;6.184;2023-05-27T05:48:52;99599.34;;;15.62;100.00
50123;BME280;36021;48.670;6.184;2023-05-27T05:51:24;99593.31;;;15.60;100.00
50123;BME280;36021;48.670;6.184;2023-05-27T05:53:54;99591.84;;;15.63;100.00
50123;BME280;36021;48.670;6.184;2023-05-27T05:56:21;99597.81;;;15.70;100.00
50123;BME280;36021;48.670;6.184;2023-05-27T05:58:48;99598.88;;;15.83;100.00
50123;BME280;36021;48.670;6.184;2023-05-27T06:01:15;99592.25;;;15.92;100.00
50123;BME280;36021;48.670;6.184;2023-05-27T06:03:43;99590.28;;;15.93;100.00
50123;BME280;36021;48.670;6.184;2023-05-27T06:06:18;99588.81;;;15.95;100.00
50123;BME280;36021;48.670;6.184;2023-05-27T06:09:03;99590.81;;;16.03;100.00
50123;BME280;36021;48.670;6.184;2023-05-27T06:11:30;99585.34;;;16.12;100.00
50123;BME280;36021;48.670;6.184;2023-05-27T06:13:57;99577.63;;;16.09;100.00
50123;BME280;36021;48.670;6.184;2023-05-27T06:16:23;99586.03;;;16.17;100.00
50123;BME280;36021;48.670;6.184;2023-05-27T06:18:50;99595.06;;;16.23;100.00
50123;BME280;36021;48.670;6.184;2023-05-27T06:21:16;99582.69;;;16.29;100.00
50123;BME280;36021;48.670;6.184;2023-05-27T06:24:11;99588.72;;;16.31;100.00
50123;BME280;36021;48.670;6.184;2023-05-27T06:26:42;99578.66;;;16.44;100.00
50123;BME280;36021;48.670;6.184;2023-05-27T06:29:08;99583.44;;;16.52;100.00
50123;BME280;36021;48.670;6.184;2023-05-27T06:31:33;99577.50;;;16.45;100.00
50123;BME280;36021;48.670;6.184;2023-05-27T06:33:59;99577.16;;;16.69;100.00
50123;BME280;36021;48.670;6.184;2023-05-27T06:36:26;99575.34;;;16.73;100.00
50123;BME280;36021;48.670;6.184;2023-05-27T06:38:52;99577.22;;;16.86;100.00
50123;BME280;36021;48.670;6.184;2023-05-27T06:41:18;99576.72;;;16.84;100.00
50123;BME280;36021;48.670;6.184;2023-05-27T06:43:55;99579.88;;;16.91;100.00
50123;BME280;36021;48.670;6.184;2023-05-27T06:46:34;99578.91;;;17.04;100.00
50123;BME280;36021;48.670;6.184;2023-05-27T06:49:06;99571.22;;;17.18;100.00
50123;BME280;36021;48.670;6.184;2023-05-27T06:51:32;99576.66;;;17.23;100.00
50123;BME280;36021;48.670;6.184;2023-05-27T06:53:58;99573.53;;;17.25;100.00
50123;BME280;36021;48.670;6.184;2023-05-27T06:56:31;99571.75;;;17.29;100.00
50123;BME280;36021;48.670;6.184;2023-05-27T06:59:00;99575.53;;;17.41;100.00
50123;BME280;36021;48.670;6.184;2023-05-27T07:01:28;99576.69;;;17.40;100.00
50123;BME280;36021;48.670;6.184;2023-05-27T07:03:58;99574.06;;;17.44;100.00
50123;BME280;36021;48.670;6.184;2023-05-27T07:06:40;99568.16;;;17.54;100.00
50123;BME280;36021;48.670;6.184;2023-05-27T07:09:08;99570.66;;;17.64;100.00
50123;BME280;36021;48.670;6.184;2023-05-27T07:11:34;99567.53;;;17.65;100.00
50123;BME280;36021;48.670;6.184;2023-05-27T07:14:04;99565.41;;;17.80;100.00
50123;BME280;36021;48.670;6.184;2023-05-27T07:16:32;99571.94;;;17.84;100.00
50123;BME280;36021;48.670;6.184;2023-05-27T07:18:58;99567.22;;;17.76;100.00
50123;BME280;36021;48.670;6.184;2023-05-27T07:21:27;99564.56;;;17.88;100.00
50123;BME280;36021;48.670;6.184;2023-05-27T07:23:53;99573.28;;;17.78;100.00
50123;BME280;36021;48.670;6.184;2023-05-27T07:26:24;99569.19;;;17.92;100.00
50123;BME280;36021;48.670;6.184;2023-05-27T07:28:58;99571.47;;;17.99;100.00
50123;BME280;36021;48.670;6.184;2023-05-27T07:31:33;99567.66;;;18.03;100.00
50123;BME280;36021;48.670;6.184;2023-05-27T07:34:05;99572.91;;;18.13;100.00
50123;BME280;36021;48.670;6.184;2023-05-27T07:36:31;99564.69;;;18.17;100.00
50123;BME280;36021;48.670;6.184;2023-05-27T07:38:56;99553.69;;;18.20;100.00
50123;BME280;36021;48.670;6.184;2023-05-27T07:41:22;99551.56;;;18.17;100.00
50123;BME280;36021;48.670;6.184;2023-05-27T07:43:48;99544.13;;;18.30;100.00
50123;BME280;36021;48.670;6.184;2023-05-27T07:46:15;99548.56;;;18.31;100.00
50123;BME280;36021;48.670;6.184;2023-05-27T07:48:41;99548.38;;;18.36;100.00
50123;BME280;36021;48.670;6.184;2023-05-27T07:51:08;99547.53;;;18.44;100.00
50123;BME280;36021;48.670;6.184;2023-05-27T07:53:36;99552.09;;;18.49;100.00
50123;BME280;36021;48.670;6.184;2023-05-27T07:56:02;99545.91;;;18.52;100.00
50123;BME280;36021;48.670;6.184;2023-05-27T07:58:28;99544.56;;;18.58;100.00
50123;BME280;36021;48.670;6.184;2023-05-27T08:01:12;99546.13;;;18.76;100.00
50123;BME280;36021;48.670;6.184;2023-05-27T08:03:42;99544.91;;;18.86;100.00
50123;BME280;36021;48.670;6.184;2023-05-27T08:06:30;99549.69;;;18.85;100.00
50123;BME280;36021;48.670;6.184;2023-05-27T08:09:02;99537.28;;;19.03;100.00
50123;BME280;36021;48.670;6.184;2023-05-27T08:11:53;99536.34;;;19.20;100.00
50123;BME280;36021;48.670;6.184;2023-05-27T08:14:33;99528.25;;;19.27;100.00
50123;BME280;36021;48.670;6.184;2023-05-27T08:17:13;99528.78;;;19.41;100.00
50123;BME280;36021;48.670;6.184;2023-05-27T08:19:56;99526.50;;;19.43;100.00
50123;BME280;36021;48.670;6.184;2023-05-27T08:22:45;99523.47;;;19.48;100.00
50123;BME280;36021;48.670;6.184;2023-05-27T08:25:11;99524.63;;;19.47;100.00
50123;BME280;36021;48.670;6.184;2023-05-27T08:28:10;99519.25;;;19.63;100.00
50123;BME280;36021;48.670;6.184;2023-05-27T08:30:46;99511.38;;;19.77;100.00
50123;BME280;36021;48.670;6.184;2023-05-27T08:33:20;99507.59;;;19.94;100.00
50123;BME280;36021;48.670;6.184;2023-05-27T08:35:46;99510.13;;;19.87;100.00
50123;BME280;36021;48.670;6.184;2023-05-27T08:38:12;99506.59;;;19.77;100.00
50123;BME280;36021;48.670;6.184;2023-05-27T08:40:39;99501.72;;;19.87;100.00
50123;BME280;36021;48.670;6.184;2023-05-27T08:43:06;99510.31;;;20.02;100.00
50123;BME280;36021;48.670;6.184;2023-05-27T08:45:36;99505.19;;;20.04;100.00
50123;BME280;36021;48.670;6.184;2023-05-27T08:48:02;99508.09;;;20.08;100.00
50123;BME280;36021;48.670;6.184;2023-05-27T08:50:35;99502.72;;;20.03;100.00
50123;BME280;36021;48.670;6.184;2023-05-27T08:53:02;99503.81;;;20.22;100.00
50123;BME280;36021;48.670;6.184;2023-05-27T08:55:29;99497.88;;;20.24;100.00
50123;BME280;36021;48.670;6.184;2023-05-27T08:57:58;99500.97;;;20.31;100.00
50123;BME280;36021;48.670;6.184;2023-05-27T09:00:27;99502.69;;;20.36;100.00
50123;BME280;36021;48.670;6.184;2023-05-27T09:02:57;99494.19;;;20.32;100.00
50123;BME280;36021;48.670;6.184;2023-05-27T09:05:31;99493.50;;;20.47;100.00
50123;BME280;36021;48.670;6.184;2023-05-27T09:07:57;99497.00;;;20.56;100.00
50123;BME280;36021;48.670;6.184;2023-05-27T09:10:35;99497.25;;;20.75;100.00
50123;BME280;36021;48.670;6.184;2023-05-27T09:13:00;99496.56;;;20.91;100.00
50123;BME280;36021;48.670;6.184;2023-05-27T09:15:26;99489.75;;;20.92;100.00
50123;BME280;36021;48.670;6.184;2023-05-27T09:17:52;99492.56;;;21.04;100.00
50123;BME280;36021;48.670;6.184;2023-05-27T09:20:24;99487.53;;;20.85;100.00
50123;BME280;36021;48.670;6.184;2023-05-27T09:25:24;99489.06;;;21.19;100.00
50123;BME280;36021;48.670;6.184;2023-05-27T09:27:51;99487.19;;;21.23;100.00
50123;BME280;36021;48.670;6.184;2023-05-27T09:30:20;99485.75;;;21.29;100.00
50123;BME280;36021;48.670;6.184;2023-05-27T09:32:46;99475.53;;;21.49;100.00
50123;BME280;36021;48.670;6.184;2023-05-27T09:35:12;99482.63;;;21.58;100.00
50123;BME280;36021;48.670;6.184;2023-05-27T09:37:39;99467.72;;;21.70;100.00
50123;BME280;36021;48.670;6.184;2023-05-27T09:40:13;99475.06;;;21.74;100.00
50123;BME280;36021;48.670;6.184;2023-05-27T09:42:48;99476.09;;;21.82;100.00
50123;BME280;36021;48.670;6.184;2023-05-27T09:45:19;99467.63;;;21.94;100.00
50123;BME280;36021;48.670;6.184;2023-05-27T09:47:53;99468.34;;;21.91;100.00
50123;BME280;36021;48.670;6.184;2023-05-27T09:50:20;99463.47;;;22.04;100.00
50123;BME280;36021;48.670;6.184;2023-05-27T09:52:48;99462.50;;;22.12;100.00
50123;BME280;36021;48.670;6.184;2023-05-27T09:55:15;99459.91;;;22.35;100.00
50123;BME280;36021;48.670;6.184;2023-05-27T09:57:43;99455.34;;;22.30;100.00
50123;BME280;36021;48.670;6.184;2023-05-27T10:00:11;99449.81;;;22.33;100.00
50123;BME280;36021;48.670;6.184;2023-05-27T10:02:40;99455.00;;;22.47;100.00
50123;BME280;36021;48.670;6.184;2023-05-27T10:05:07;99446.38;;;22.56;100.00
50123;BME280;36021;48.670;6.184;2023-05-27T10:07:41;99450.19;;;22.63;100.00
50123;BME280;36021;48.670;6.184;2023-05-27T10:10:10;99450.19;;;22.79;100.00
50123;BME280;36021;48.670;6.184;2023-05-27T10:12:39;99442.81;;;22.90;100.00
50123;BME280;36021;48.670;6.184;2023-05-27T10:15:06;99446.41;;;22.91;100.00
50123;BME280;36021;48.670;6.184;2023-05-27T10:20:09;99446.63;;;23.17;100.00
50123;BME280;36021;48.670;6.184;2023-05-27T10:22:42;99457.88;;;23.17;100.00
50123;BME280;36021;48.670;6.184;2023-05-27T10:25:12;99441.31;;;23.31;100.00
50123;BME280;36021;48.670;6.184;2023-05-27T10:27:45;99440.75;;;23.41;100.00
50123;BME280;36021;48.670;6.184;2023-05-27T10:30:14;99444.38;;;23.42;100.00
50123;BME280;36021;48.670;6.184;2023-05-27T10:32:44;99436.19;;;23.52;100.00
50123;BME280;36021;48.670;6.184;2023-05-27T10:35:12;99431.78;;;23.74;100.00
50123;BME280;36021;48.670;6.184;2023-05-27T10:37:41;99429.56;;;23.64;100.00
50123;BME280;36021;48.670;6.184;2023-05-27T10:40:07;99419.03;;;23.80;100.00
50123;BME280;36021;48.670;6.184;2023-05-27T10:42:36;99427.81;;;23.98;100.00
50123;BME280;36021;48.670;6.184;2023-05-27T10:45:06;99418.28;;;24.06;100.00
50123;BME280;36021;48.670;6.184;2023-05-27T10:47:36;99417.00;;;24.22;100.00
50123;BME280;36021;48.670;6.184;2023-05-27T10:50:12;99425.25;;;24.12;100.00
50123;BME280;36021;48.670;6.184;2023-05-27T10:52:40;99408.63;;;24.26;100.00
50123;BME280;36021;48.670;6.184;2023-05-27T10:55:06;99406.81;;;24.37;100.00
50123;BME280;36021;48.670;6.184;2023-05-27T10:57:35;99412.63;;;24.25;100.00
50123;BME280;36021;48.670;6.184;2023-05-27T11:00:04;99410.38;;;24.34;100.00
50123;BME280;36021;48.670;6.184;2023-05-27T11:02:38;99401.94;;;24.34;100.00
50123;BME280;36021;48.670;6.184;2023-05-27T11:05:14;99397.72;;;24.47;100.00
50123;BME280;36021;48.670;6.184;2023-05-27T11:07:40;99399.44;;;24.55;100.00
50123;BME280;36021;48.670;6.184;2023-05-27T11:10:08;99398.78;;;24.65;100.00
50123;BME280;36021;48.670;6.184;2023-05-27T11:12:34;99398.75;;;24.88;100.00
50123;BME280;36021;48.670;6.184;2023-05-27T11:15:00;99395.34;;;25.02;100.00
50123;BME280;36021;48.670;6.184;2023-05-27T11:17:26;99390.50;;;25.02;100.00
50123;BME280;36021;48.670;6.184;2023-05-27T11:19:53;99384.50;;;25.07;100.00
50123;BME280;36021;48.670;6.184;2023-05-27T11:22:20;99373.00;;;25.19;100.00
50123;BME280;36021;48.670;6.184;2023-05-27T11:24:59;99386.03;;;25.31;100.00
50123;BME280;36021;48.670;6.184;2023-05-27T11:27:37;99385.13;;;25.23;100.00
50123;BME280;36021;48.670;6.184;2023-05-27T11:30:11;99375.34;;;25.14;100.00
50123;BME280;36021;48.670;6.184;2023-05-27T11:32:40;99371.47;;;25.25;100.00
50123;BME280;36021;48.670;6.184;2023-05-27T11:35:13;99371.16;;;25.34;100.00
50123;BME280;36021;48.670;6.184;2023-05-27T11:37:39;99360.03;;;25.48;100.00
50123;BME280;36021;48.670;6.184;2023-05-27T11:40:11;99358.66;;;25.65;100.00
50123;BME280;36021;48.670;6.184;2023-05-27T11:42:43;99365.22;;;25.76;100.00
50123;BME280;36021;48.670;6.184;2023-05-27T11:45:15;99355.09;;;25.71;100.00
50123;BME280;36021;48.670;6.184;2023-05-27T11:47:41;99342.38;;;25.95;100.00
50123;BME280;36021;48.670;6.184;2023-05-27T11:50:08;99347.28;;;26.02;100.00
50123;BME280;36021;48.670;6.184;2023-05-27T11:52:34;99344.06;;;26.00;100.00
50123;BME280;36021;48.670;6.184;2023-05-27T11:55:00;99340.03;;;26.01;100.00
50123;BME280;36021;48.670;6.184;2023-05-27T11:57:26;99338.06;;;26.08;100.00
50123;BME280;36021;48.670;6.184;2023-05-27T11:59:52;99337.81;;;26.20;100.00
50123;BME280;36021;48.670;6.184;2023-05-27T12:02:19;99327.22;;;26.14;100.00
50123;BME280;36021;48.670;6.184;2023-05-27T12:04:47;99323.38;;;26.36;97.43
50123;BME280;36021;48.670;6.184;2023-05-27T12:07:13;99317.88;;;26.54;94.15
50123;BME280;36021;48.670;6.184;2023-05-27T12:09:39;99317.06;;;26.53;92.96
50123;BME280;36021;48.670;6.184;2023-05-27T12:12:05;99314.34;;;26.74;94.56
50123;BME280;36021;48.670;6.184;2023-05-27T12:14:31;99306.75;;;26.85;98.26
50123;BME280;36021;48.670;6.184;2023-05-27T12:16:57;99310.03;;;26.95;94.14
50123;BME280;36021;48.670;6.184;2023-05-27T12:19:23;99308.41;;;26.93;90.31
50123;BME280;36021;48.670;6.184;2023-05-27T12:21:59;99306.81;;;27.03;87.82
50123;BME280;36021;48.670;6.184;2023-05-27T12:24:25;99293.09;;;27.02;88.60
50123;BME280;36021;48.670;6.184;2023-05-27T12:26:50;99295.53;;;27.07;87.86
50123;BME280;36021;48.670;6.184;2023-05-27T12:29:16;99290.19;;;26.91;88.01
50123;BME280;36021;48.670;6.184;2023-05-27T12:31:42;99289.88;;;27.14;87.36
50123;BME280;36021;48.670;6.184;2023-05-27T12:34:08;99302.03;;;27.14;87.85
50123;BME280;36021;48.670;6.184;2023-05-27T12:36:34;99301.25;;;27.21;87.45
50123;BME280;36021;48.670;6.184;2023-05-27T12:38:59;99282.59;;;27.16;87.11
50123;BME280;36021;48.670;6.184;2023-05-27T12:41:26;99285.91;;;27.29;87.75
50123;BME280;36021;48.670;6.184;2023-05-27T12:43:52;99282.69;;;27.37;85.75
50123;BME280;36021;48.670;6.184;2023-05-27T12:46:17;99280.63;;;27.24;85.98
50123;BME280;36021;48.670;6.184;2023-05-27T12:48:43;99269.81;;;27.54;85.42
50123;BME280;36021;48.670;6.184;2023-05-27T12:51:09;99277.53;;;27.71;83.62
50123;BME280;36021;48.670;6.184;2023-05-27T12:53:35;99273.84;;;27.60;79.94
50123;BME280;36021;48.670;6.184;2023-05-27T12:56:00;99265.75;;;27.62;78.74
50123;BME280;36021;48.670;6.184;2023-05-27T12:58:26;99258.88;;;27.88;81.70
50123;BME280;36021;48.670;6.184;2023-05-27T13:00:52;99262.13;;;27.90;78.52
50123;BME280;36021;48.670;6.184;2023-05-27T13:03:17;99260.91;;;27.94;76.15
50123;BME280;36021;48.670;6.184;2023-05-27T13:05:44;99260.09;;;28.05;74.25
50123;BME280;36021;48.670;6.184;2023-05-27T13:08:10;99264.16;;;28.18;74.23
50123;BME280;36021;48.670;6.184;2023-05-27T13:10:37;99253.25;;;28.20;70.32